createdAt,value
2022-08-09T00:06:18.065Z,99649.16
2022-08-09T00:10:32.101Z,99646.00
2022-08-09T00:15:59.526Z,99655.84
2022-08-09T00:21:09.053Z,99655.16
2022-08-09T00:26:14.093Z,99655.78
2022-08-09T00:31:57.505Z,99658.88
2022-08-09T00:36:47.355Z,99655.47
2022-08-09T00:44:19.391Z,99648.91
2022-08-09T00:47:20.506Z,99655.25
2022-08-09T00:52:30.060Z,99658.19
2022-08-09T00:57:35.809Z,99666.75
2022-08-09T01:02:49.759Z,99666.16
2022-08-09T01:08:01.933Z,99659.81
2022-08-09T01:13:16.895Z,99664.06
2022-08-09T01:18:30.139Z,99664.22
2022-08-09T01:24:03.190Z,99666.56
2022-08-09T01:29:15.460Z,99669.91
2022-08-09T01:34:24.634Z,99668.63
2022-08-09T01:39:35.737Z,99676.13
2022-08-09T01:44:44.772Z,99671.53
2022-08-09T01:49:54.613Z,99661.03
2022-08-09T01:55:02.337Z,99675.00
2022-08-09T02:00:34.554Z,99668.16
2022-08-09T02:06:03.271Z,99663.00
2022-08-09T02:11:13.422Z,99681.38
2022-08-09T02:16:33.813Z,99677.63
2022-08-09T02:21:57.031Z,99679.06
2022-08-09T02:27:07.295Z,99686.00
2022-08-09T02:32:18.735Z,99690.88
2022-08-09T02:37:31.482Z,99687.50
2022-08-09T02:42:41.574Z,99690.38
2022-08-09T02:47:59.151Z,99694.22
2022-08-09T02:53:08.148Z,99698.19
2022-08-09T02:58:32.589Z,99701.47
2022-08-09T03:04:18.396Z,99693.97
2022-08-09T03:09:11.929Z,99693.97
2022-08-09T03:14:19.670Z,99696.94
2022-08-09T03:19:57.775Z,99695.91
2022-08-09T03:25:20.898Z,99694.53
2022-08-09T03:30:33.378Z,99700.75
2022-08-09T03:36:11.749Z,99699.88
2022-08-09T03:41:07.194Z,99694.38
2022-08-09T03:46:19.616Z,99697.41
2022-08-09T03:51:55.979Z,99701.47
2022-08-09T03:56:55.063Z,99700.88
2022-08-09T04:02:03.963Z,99695.03
2022-08-09T04:07:17.599Z,99713.34
2022-08-09T04:12:41.388Z,99708.91
2022-08-09T04:17:50.043Z,99717.13
2022-08-09T04:22:59.720Z,99725.56
2022-08-09T04:28:05.070Z,99720.50
2022-08-09T04:33:10.578Z,99713.56
2022-08-09T04:38:18.211Z,99723.84
2022-08-09T04:43:25.297Z,99720.56
2022-08-09T04:48:33.492Z,99724.75
2022-08-09T04:53:41.303Z,99727.50
2022-08-09T04:58:47.633Z,99737.50
2022-08-09T05:03:58.710Z,99727.44
2022-08-09T05:09:10.761Z,99738.00
2022-08-09T05:14:17.429Z,99738.09
2022-08-09T05:19:25.506Z,99734.03
2022-08-09T05:24:33.822Z,99729.97
2022-08-09T05:29:41.523Z,99743.50
2022-08-09T05:34:46.540Z,99741.69
2022-08-09T05:39:54.997Z,99736.00
2022-08-09T05:45:01.183Z,99740.34
2022-08-09T05:50:30.921Z,99747.66
2022-08-09T05:55:35.211Z,99737.97
2022-08-09T06:00:43.922Z,99748.13
2022-08-09T06:05:54.672Z,99740.22
2022-08-09T06:11:17.417Z,99740.38
2022-08-09T06:16:23.558Z,99747.94
2022-08-09T06:21:58.899Z,99749.44
2022-08-09T06:27:03.620Z,99757.06
2022-08-09T06:32:53.429Z,99764.66
2022-08-09T06:37:53.364Z,99761.94
2022-08-09T06:43:15.209Z,99773.59
2022-08-09T06:48:30.093Z,99775.00
2022-08-09T06:53:38.682Z,99775.25
2022-08-09T07:00:49.735Z,99770.09
2022-08-09T07:04:12.224Z,99774.34
2022-08-09T07:09:54.873Z,99772.56
2022-08-09T07:14:53.655Z,99773.69
2022-08-09T07:19:58.740Z,99777.88
2022-08-09T07:25:09.667Z,99791.72
2022-08-09T07:30:18.295Z,99791.91
2022-08-09T07:35:23.739Z,99778.53
2022-08-09T07:40:46.206Z,99785.91
2022-08-09T07:46:01.850Z,99779.84
2022-08-09T07:52:03.706Z,99783.88
2022-08-09T07:56:35.992Z,99782.78
2022-08-09T08:01:52.931Z,99777.75
2022-08-09T08:07:09.188Z,99779.19
2022-08-09T08:12:27.751Z,99775.59
2022-08-09T08:17:55.268Z,99771.06
2022-08-09T08:23:16.737Z,99768.38
2022-08-09T08:28:26.184Z,99763.25
2022-08-09T08:33:52.268Z,99765.81
2022-08-09T08:39:02.549Z,99761.69
2022-08-09T08:44:07.688Z,99766.06
2022-08-09T08:49:19.098Z,99760.56
2022-08-09T08:54:28.145Z,99759.78
2022-08-09T08:59:47.099Z,99768.06
2022-08-09T09:04:57.825Z,99758.03
2022-08-09T09:10:12.106Z,99754.28
2022-08-09T09:15:28.307Z,99752.38
2022-08-09T09:20:39.032Z,99759.34
2022-08-09T09:26:03.274Z,99762.38
2022-08-09T09:32:04.599Z,99767.59
2022-08-09T09:36:54.053Z,99763.25
2022-08-09T09:42:00.554Z,99760.00
2022-08-09T09:47:10.945Z,99767.13
2022-08-09T09:52:37.007Z,99761.25
2022-08-09T09:58:02.984Z,99768.09
2022-08-09T10:03:11.650Z,99767.34
2022-08-09T10:08:27.904Z,99748.03
2022-08-09T10:13:45.463Z,99750.31
2022-08-09T10:19:02.912Z,99744.94
2022-08-09T10:24:25.440Z,99750.25
2022-08-09T10:30:30.076Z,99745.69
2022-08-09T10:35:13.224Z,99746.16
2022-08-09T10:40:32.518Z,99758.50
2022-08-09T10:45:49.402Z,99754.94
2022-08-09T10:51:18.331Z,99754.03
2022-08-09T10:56:28.770Z,99748.19
2022-08-09T11:03:17.972Z,99742.19
2022-08-09T11:07:56.933Z,99757.16
2022-08-09T11:13:50.296Z,99747.47
2022-08-09T11:18:49.330Z,99739.72
2022-08-09T11:24:13.598Z,99738.25
2022-08-09T11:30:04.388Z,99740.31
2022-08-09T11:35:19.824Z,99732.47
2022-08-09T11:40:34.199Z,99731.28
2022-08-09T11:45:43.680Z,99725.81
2022-08-09T11:53:01.069Z,99733.56
2022-08-09T11:56:42.484Z,99730.09
2022-08-09T12:02:18.215Z,99721.78
2022-08-09T12:07:21.010Z,99721.50
2022-08-09T12:12:28.739Z,99717.63
2022-08-09T12:17:44.556Z,99705.19
2022-08-09T12:23:01.832Z,99711.38
2022-08-09T12:29:00.253Z,99702.38
2022-08-09T12:33:59.005Z,99699.25
2022-08-09T12:39:20.513Z,99708.13
2022-08-09T12:44:26.322Z,99709.34
2022-08-09T12:49:52.915Z,99707.34
2022-08-09T12:56:11.478Z,99705.88
2022-08-09T13:00:29.604Z,99713.50
2022-08-09T13:05:51.531Z,99707.69
2022-08-09T13:11:23.144Z,99701.47
2022-08-09T13:16:49.518Z,99694.94
2022-08-09T13:22:37.083Z,99699.66
2022-08-09T13:27:55.251Z,99691.75
2022-08-09T13:33:02.786Z,99687.56
2022-08-09T13:38:32.999Z,99696.81
2022-08-09T13:43:40.586Z,99697.16
2022-08-09T13:48:46.586Z,99699.53
2022-08-09T13:53:53.605Z,99701.84
2022-08-09T13:59:02.812Z,99690.94
2022-08-09T14:04:11.623Z,99694.47
2022-08-09T14:09:24.962Z,99690.53
2022-08-09T14:14:37.058Z,99694.94
2022-08-09T14:19:42.480Z,99692.63
2022-08-09T14:24:54.096Z,99698.81
2022-08-09T14:30:35.888Z,99691.03
2022-08-09T14:35:27.948Z,99682.66
2022-08-09T14:41:02.372Z,99678.91
2022-08-09T14:46:46.158Z,99673.72
2022-08-09T14:51:51.613Z,99674.63
2022-08-09T14:57:03.638Z,99681.66
2022-08-09T15:02:11.204Z,99679.31
2022-08-09T15:07:17.518Z,99672.97
2022-08-09T15:12:24.569Z,99662.06
2022-08-09T15:17:41.482Z,99657.81
2022-08-09T15:22:47.753Z,99669.06
2022-08-09T15:27:56.519Z,99658.19
2022-08-09T15:33:08.690Z,99650.34
2022-08-09T15:38:21.521Z,99664.44
2022-08-09T15:43:36.696Z,99659.69
2022-08-09T15:48:52.874Z,99651.88
2022-08-09T15:54:20.996Z,99653.88
2022-08-09T15:59:37.065Z,99664.41
2022-08-09T16:04:45.111Z,99658.19
2022-08-09T16:10:04.195Z,99650.75
2022-08-09T16:16:11.678Z,99644.09
2022-08-09T16:20:41.692Z,99650.41
2022-08-09T16:25:49.798Z,99635.97
2022-08-09T16:30:58.693Z,99637.09
2022-08-09T16:36:13.180Z,99636.72
2022-08-09T16:42:02.171Z,99640.28
2022-08-09T16:46:54.906Z,99638.66
2022-08-09T16:52:10.058Z,99644.97
2022-08-09T16:57:14.979Z,99639.50
2022-08-09T17:02:23.304Z,99643.78
2022-08-09T17:08:43.017Z,99635.19
2022-08-09T17:12:58.251Z,99639.06
2022-08-09T17:18:03.188Z,99641.00
2022-08-09T17:23:14.772Z,99632.75
2022-08-09T17:28:22.224Z,99633.91
2022-08-09T17:33:29.308Z,99639.69
2022-08-09T17:38:57.616Z,99646.94
2022-08-09T17:44:47.154Z,99642.31
2022-08-09T17:49:30.346Z,99642.28
2022-08-09T17:54:38.438Z,99652.94
2022-08-09T17:59:46.110Z,99648.16
2022-08-09T18:05:16.778Z,99663.53
2022-08-09T18:10:24.352Z,99657.16
2022-08-09T18:16:05.477Z,99656.31
2022-08-09T18:21:17.705Z,99659.94
2022-08-09T18:26:26.648Z,99663.81
2022-08-09T18:31:55.111Z,99664.38
2022-08-09T18:36:57.223Z,99664.97
2022-08-09T18:42:08.155Z,99664.97
2022-08-09T18:47:23.389Z,99680.78
2022-08-09T18:52:35.123Z,99684.25
2022-08-09T18:57:44.859Z,99690.53
2022-08-09T19:02:51.212Z,99701.63
2022-08-09T19:08:09.747Z,99698.78
2022-08-09T19:13:22.425Z,99705.06
2022-08-09T19:18:45.602Z,99717.38
2022-08-09T19:24:39.489Z,99719.03
2022-08-09T19:29:20.797Z,99713.59
2022-08-09T19:34:26.195Z,99722.06
2022-08-09T19:40:02.801Z,99737.63
2022-08-09T19:44:59.132Z,99733.84
2022-08-09T19:50:07.640Z,99729.50
2022-08-09T19:55:39.120Z,99731.78
2022-08-09T20:00:57.091Z,99731.25
2022-08-09T20:06:04.139Z,99734.25
2022-08-09T20:11:09.138Z,99744.13
2022-08-09T20:16:35.234Z,99749.56
2022-08-09T20:21:57.021Z,99751.69
2022-08-09T20:27:08.210Z,99751.25
2022-08-09T20:32:42.075Z,99748.75
2022-08-09T20:38:23.489Z,99748.53
2022-08-09T20:43:17.997Z,99747.56
2022-08-09T20:48:32.730Z,99749.97
2022-08-09T20:53:39.075Z,99737.38
2022-08-09T20:58:44.448Z,99750.47
2022-08-09T21:05:49.266Z,99747.25
2022-08-09T21:09:32.603Z,99745.09
2022-08-09T21:14:46.136Z,99755.56
2022-08-09T21:20:18.107Z,99746.03
2022-08-09T21:25:38.163Z,99759.63
2022-08-09T21:30:44.634Z,99759.25
2022-08-09T21:35:52.893Z,99753.50
2022-08-09T21:40:57.986Z,99770.22
2022-08-09T21:46:03.978Z,99764.44
2022-08-09T21:51:13.241Z,99774.69
2022-08-09T21:56:43.552Z,99779.22
2022-08-09T22:02:00.248Z,99788.13
2022-08-09T22:07:09.771Z,99790.16
2022-08-09T22:12:18.573Z,99792.81
2022-08-09T22:17:23.993Z,99797.38
2022-08-09T22:22:33.658Z,99786.47
2022-08-09T22:27:38.881Z,99787.09
2022-08-09T22:32:45.411Z,99783.34
2022-08-09T22:38:07.163Z,99784.97
2022-08-09T22:43:17.033Z,99792.19
2022-08-09T22:48:38.386Z,99794.09
2022-08-09T22:54:01.040Z,99787.75
2022-08-09T22:59:56.800Z,99786.59
2022-08-09T23:04:33.855Z,99781.47
2022-08-09T23:09:46.886Z,99785.56
2022-08-09T23:14:53.963Z,99786.75
2022-08-09T23:20:06.388Z,99787.25
2022-08-09T23:25:15.844Z,99780.25
2022-08-09T23:30:21.553Z,99788.50
2022-08-09T23:35:26.662Z,99775.09
2022-08-09T23:40:34.285Z,99783.66
2022-08-09T23:45:39.396Z,99775.56
2022-08-09T23:50:44.527Z,99774.50
2022-08-09T23:55:55.490Z,99774.81
